Time;durP1;ratioP1;P1;durP2;ratioP2;P2;SDS_P1;SDS_P2;PMS_P1;PMS_P2;Temp;Humidity;BMP_temperature;BMP_pressure;BME280_temperature;BME280_humidity;BME280_pressure;Samples;Min_cycle;Max_cycle;Signal;HPM_P1;HPM_P2
2022/08/20 00:00:56;;;;;;;27.20;23.23;;;22.20;1.00;;;;;;5085451;28;20453;-57
2022/08/20 00:03:30;;;;;;;27.17;23.60;;;22.20;1.00;;;;;;5085799;28;20452;-55
2022/08/20 00:06:11;;;;;;;25.27;22.60;;;22.30;1.00;;;;;;5085051;28;20807;-56
2022/08/20 00:08:38;;;;;;;26.50;20.90;;;22.40;1.00;;;;;;5085327;28;20924;-56
2022/08/20 00:11:10;;;;;;;29.77;24.07;;;22.30;1.00;;;;;;5065591;28;21032;-54
2022/08/20 00:13:43;;;;;;;28.23;23.80;;;22.40;1.00;;;;;;5084303;28;20446;-54
2022/08/20 00:16:10;;;;;;;28.10;22.77;;;22.20;1.00;;;;;;5086236;28;20419;-55
2022/08/20 00:18:36;;;;;;;29.13;22.57;;;22.30;1.00;;;;;;5066561;28;21061;-56
2022/08/20 00:21:12;;;;;;;29.70;23.90;;;22.30;1.00;;;;;;5084459;28;20443;-54
2022/08/20 00:23:40;;;;;;;30.30;24.27;;;22.30;1.00;;;;;;5088297;28;20521;-55
2022/08/20 00:26:29;;;;;;;29.57;24.97;;;22.20;1.00;;;;;;5089805;28;20909;-55
2022/08/20 00:28:55;;;;;;;27.40;24.40;;;22.20;1.00;;;;;;5077203;28;20817;-55
2022/08/20 00:31:22;;;;;;;29.87;24.50;;;22.10;1.00;;;;;;5084923;28;20491;-53
2022/08/20 00:33:48;;;;;;;26.57;22.87;;;22.10;1.00;;;;;;5085429;28;20312;-55
2022/08/20 00:36:16;;;;;;;26.23;23.40;;;22.10;1.00;;;;;;5085437;28;20513;-55
2022/08/20 00:38:43;;;;;;;28.17;24.37;;;22.30;1.00;;;;;;5067211;28;20464;-55
2022/08/20 00:41:24;;;;;;;32.03;25.67;;;22.30;1.00;;;;;;5083796;28;20446;-55
2022/08/20 00:44:08;;;;;;;30.90;24.33;;;22.20;1.00;;;;;;5083869;28;20494;-56
2022/08/20 00:46:35;;;;;;;30.77;26.10;;;22.30;1.00;;;;;;5085409;28;20823;-55
2022/08/20 00:49:04;;;;;;;30.93;24.60;;;22.20;1.00;;;;;;5085205;28;20455;-54
2022/08/20 00:51:38;;;;;;;28.83;23.83;;;22.30;1.00;;;;;;5089612;28;20415;-54
2022/08/20 00:54:15;;;;;;;28.47;24.83;;;22.30;1.00;;;;;;5086019;28;20453;-55
2022/08/20 00:56:47;;;;;;;26.37;23.40;;;22.30;1.00;;;;;;5084584;28;20451;-55
2022/08/20 00:59:19;;;;;;;29.93;25.23;;;22.40;1.00;;;;;;5084263;28;20453;-55
2022/08/20 01:01:45;;;;;;;34.50;26.63;;;22.20;1.00;;;;;;5083458;28;20942;-54
2022/08/20 01:04:11;;;;;;;31.10;26.37;;;22.20;1.00;;;;;;5082868;28;20419;-55
2022/08/20 01:06:37;;;;;;;34.73;24.90;;;22.30;1.00;;;;;;5083345;28;20444;-56
2022/08/20 01:09:05;;;;;;;33.93;26.70;;;22.20;1.00;;;;;;5082007;28;20567;-53
2022/08/20 01:11:32;;;;;;;30.60;27.23;;;22.10;1.00;;;;;;5083444;28;20419;-56
2022/08/20 01:14:18;;;;;;;32.97;26.70;;;22.00;1.00;;;;;;5083816;28;20946;-54
2022/08/20 01:16:46;;;;;;;30.63;25.57;;;22.10;1.00;;;;;;5086081;28;20559;-54
2022/08/20 01:19:13;;;;;;;34.43;27.73;;;22.00;1.00;;;;;;5089791;28;20416;-55
2022/08/20 01:21:39;;;;;;;38.87;28.00;;;22.00;1.00;;;;;;5088814;28;20468;-54
2022/08/20 01:24:15;;;;;;;32.77;27.73;;;21.90;1.00;;;;;;5089294;28;20434;-55
2022/08/20 01:26:44;;;;;;;32.90;28.37;;;22.00;1.00;;;;;;5089935;28;20266;-55
2022/08/20 01:29:24;;;;;;;39.10;28.97;;;22.10;1.00;;;;;;5089444;28;20445;-55
2022/08/20 01:31:50;;;;;;;36.40;30.37;;;22.00;1.00;;;;;;5089171;28;20416;-56
2022/08/20 01:34:20;;;;;;;36.03;27.70;;;21.90;1.00;;;;;;5071504;28;20415;-55
2022/08/20 01:36:52;;;;;;;31.10;26.40;;;22.00;1.00;;;;;;5088554;28;20476;-54
2022/08/20 01:39:28;;;;;;;33.47;28.03;;;22.00;1.00;;;;;;5080847;28;20834;-57
2022/08/20 01:42:16;;;;;;;35.90;28.00;;;21.90;1.00;;;;;;5080535;28;20766;-54
2022/08/20 01:44:43;;;;;;;37.13;27.07;;;22.00;1.00;;;;;;5085438;28;20919;-55
2022/08/20 01:47:20;;;;;;;35.23;28.67;;;22.00;1.00;;;;;;5089398;28;20973;-55
2022/08/20 01:49:50;;;;;;;34.43;28.87;;;21.90;1.00;;;;;;5090989;28;20440;-55
2022/08/20 01:52:45;;;;;;;35.40;28.30;;;21.90;1.00;;;;;;5089288;28;20434;-56
2022/08/20 01:55:11;;;;;;;38.43;29.83;;;21.90;1.00;;;;;;5078851;28;20461;-56
2022/08/20 01:57:38;;;;;;;36.93;30.50;;;21.80;1.00;;;;;;5086961;28;20448;-56
2022/08/20 02:00:12;;;;;;;38.60;30.03;;;21.80;1.00;;;;;;5088238;28;20969;-54
2022/08/20 02:02:38;;;;;;;41.93;33.57;;;21.80;1.00;;;;;;5088893;28;20416;-55
2022/08/20 02:05:04;;;;;;;42.07;32.07;;;21.70;1.00;;;;;;5085354;28;20483;-54
2022/08/20 02:07:31;;;;;;;40.03;31.43;;;21.70;1.00;;;;;;5090260;28;20475;-53
2022/08/20 02:09:57;;;;;;;41.33;29.93;;;21.70;1.00;;;;;;5086915;28;20194;-56
2022/08/20 02:12:23;;;;;;;38.90;29.97;;;21.60;1.00;;;;;;5085594;28;20444;-56
2022/08/20 02:14:52;;;;;;;36.73;29.63;;;21.50;1.00;;;;;;5087935;28;20452;-55
2022/08/20 02:17:19;;;;;;;38.20;30.10;;;21.60;1.00;;;;;;5088969;28;20766;-57
2022/08/20 02:19:53;;;;;;;42.73;31.10;;;21.60;1.00;;;;;;5089580;28;20407;-56
2022/08/20 02:22:28;;;;;;;38.23;28.57;;;21.50;1.00;;;;;;5085925;28;20457;-57
2022/08/20 02:24:53;;;;;;;36.60;31.07;;;21.60;1.00;;;;;;5087510;28;20423;-58
2022/08/20 02:27:22;;;;;;;42.50;31.53;;;21.60;1.00;;;;;;5089300;28;20441;-57
2022/08/20 02:29:50;;;;;;;45.23;32.43;;;21.60;1.00;;;;;;5086421;28;20604;-57
2022/08/20 02:32:16;;;;;;;44.33;33.53;;;21.60;1.00;;;;;;5088082;28;20496;-56
2022/08/20 02:34:41;;;;;;;43.27;31.70;;;21.50;1.00;;;;;;5086673;28;20427;-58
2022/08/20 02:37:07;;;;;;;39.87;30.90;;;21.40;1.00;;;;;;5087823;28;20427;-57
2022/08/20 02:39:34;;;;;;;41.80;33.40;;;21.40;1.00;;;;;;5087276;28;20428;-56
2022/08/20 02:42:02;;;;;;;42.87;32.27;;;21.40;1.00;;;;;;5087873;28;20826;-56
2022/08/20 02:44:28;;;;;;;42.17;33.77;;;21.30;1.00;;;;;;5066894;28;20435;-56
2022/08/20 02:46:54;;;;;;;39.13;30.53;;;21.30;1.00;;;;;;5089224;28;20565;-56
2022/08/20 02:49:20;;;;;;;46.47;31.47;;;21.20;1.00;;;;;;5083170;28;20524;-57
2022/08/20 02:51:46;;;;;;;45.33;34.10;;;21.30;1.00;;;;;;5086117;28;20578;-57
2022/08/20 02:54:13;;;;;;;48.13;34.50;;;21.30;1.00;;;;;;5088082;28;20434;-56
2022/08/20 02:56:38;;;;;;;43.50;31.97;;;21.30;1.00;;;;;;5086890;28;20427;-56
2022/08/20 02:59:04;;;;;;;45.87;32.67;;;21.20;1.00;;;;;;5087079;28;20517;-57
2022/08/20 03:01:31;;;;;;;46.17;32.53;;;21.20;1.00;;;;;;5089619;28;20651;-57
2022/08/20 03:03:58;;;;;;;47.53;32.83;;;21.20;1.00;;;;;;5087402;28;20445;-56
2022/08/20 03:06:25;;;;;;;51.77;35.30;;;21.20;1.00;;;;;;5089312;28;20448;-56
2022/08/20 03:08:51;;;;;;;52.23;35.57;;;21.30;1.00;;;;;;5087115;28;20415;-56
2022/08/20 03:11:30;;;;;;;48.20;35.80;;;21.30;1.00;;;;;;5089026;28;20431;-56
2022/08/20 03:13:55;;;;;;;52.20;37.03;;;21.20;1.00;;;;;;5087983;28;20816;-57
2022/08/20 03:16:21;;;;;;;51.63;35.77;;;21.10;1.00;;;;;;5087120;28;20509;-56
2022/08/20 03:18:47;;;;;;;56.03;38.23;;;21.00;1.00;;;;;;5069174;28;20197;-56
2022/08/20 03:21:21;;;;;;;49.13;35.20;;;21.00;1.00;;;;;;5084774;28;20213;-56
2022/08/20 03:23:47;;;;;;;46.57;34.23;;;20.90;1.00;;;;;;5089514;28;20329;-56
2022/08/20 03:26:22;;;;;;;50.83;33.40;;;20.90;1.00;;;;;;5088480;28;20526;-56
2022/08/20 03:28:47;;;;;;;48.57;34.30;;;20.90;1.00;;;;;;5090674;28;20182;-57
2022/08/20 03:31:25;;;;;;;52.30;35.20;;;20.90;1.00;;;;;;5090458;28;21218;-57
2022/08/20 03:33:51;;;;;;;49.57;35.10;;;20.90;1.00;;;;;;5091721;28;20201;-57
2022/08/20 03:36:27;;;;;;;51.03;33.93;;;21.00;1.00;;;;;;5092592;28;20444;-56
2022/08/20 03:38:53;;;;;;;47.90;34.27;;;21.00;1.00;;;;;;5091384;28;20224;-56
2022/08/20 03:41:31;;;;;;;46.13;33.50;;;20.90;1.00;;;;;;5084901;28;20449;-56
2022/08/20 03:43:57;;;;;;;50.00;34.80;;;20.90;1.00;;;;;;5088479;28;20970;-56
2022/08/20 03:46:25;;;;;;;47.40;32.57;;;20.80;1.00;;;;;;5088688;28;20415;-57
2022/08/20 03:48:51;;;;;;;47.37;32.97;;;20.90;15.50;;;;;;5089268;28;20489;-57
2022/08/20 03:51:31;;;;;;;46.77;33.40;;;20.80;17.80;;;;;;5086050;28;21267;-57
2022/08/20 03:53:57;;;;;;;44.67;31.70;;;21.00;11.20;;;;;;5085938;28;20452;-56
2022/08/20 03:56:26;;;;;;;46.90;33.80;;;21.00;1.00;;;;;;5090899;28;20754;-57
2022/08/20 03:58:51;;;;;;;43.17;31.87;;;21.00;1.00;;;;;;5091613;28;20448;-56
2022/08/20 04:01:17;;;;;;;41.20;30.50;;;21.00;1.00;;;;;;5087593;28;20800;-57
2022/08/20 04:03:44;;;;;;;44.60;31.20;;;20.90;8.00;;;;;;5090222;28;20712;-57
2022/08/20 04:06:09;;;;;;;37.20;27.80;;;21.00;9.80;;;;;;5090910;28;20191;-56
2022/08/20 04:08:36;;;;;;;34.80;27.13;;;21.00;9.20;;;;;;5092402;28;20764;-56
2022/08/20 04:11:02;;;;;;;39.07;27.83;;;21.00;1.00;;;;;;5090144;28;20187;-55
2022/08/20 04:13:30;;;;;;;36.80;27.03;;;21.00;1.00;;;;;;5090191;28;20525;-56
2022/08/20 04:15:55;;;;;;;36.93;27.40;;;20.90;1.00;;;;;;5089275;28;20589;-56
2022/08/20 04:18:24;;;;;;;32.07;25.67;;;20.90;1.00;;;;;;5092928;28;20573;-55
2022/08/20 04:20:51;;;;;;;30.40;24.03;;;20.90;5.70;;;;;;5088960;28;20202;-56
2022/08/20 04:23:17;;;;;;;34.00;25.07;;;21.00;1.00;;;;;;5091208;28;20773;-56
2022/08/20 04:25:45;;;;;;;28.00;21.37;;;20.90;1.00;;;;;;5091106;28;20908;-57
2022/08/20 04:28:25;;;;;;;30.73;23.57;;;20.80;1.50;;;;;;5087977;28;20433;-56
2022/08/20 04:30:52;;;;;;;25.77;19.97;;;20.80;8.30;;;;;;5087961;28;20411;-56
2022/08/20 04:33:21;;;;;;;24.27;18.93;;;20.80;7.90;;;;;;5091354;28;20430;-57
2022/08/20 04:35:46;;;;;;;23.67;20.30;;;20.80;7.30;;;;;;5091617;28;20514;-55
2022/08/20 04:38:17;;;;;;;21.50;17.97;;;20.50;18.80;;;;;;5084141;28;20485;-55
2022/08/20 04:40:52;;;;;;;22.93;18.20;;;20.60;46.10;;;;;;5084811;28;21004;-57
2022/08/20 04:43:18;;;;;;;22.30;16.50;;;20.70;78.70;;;;;;5089255;28;20935;-56
2022/08/20 04:45:45;;;;;;;19.37;16.70;;;20.60;91.70;;;;;;5091472;28;20460;-57
2022/08/20 04:48:12;;;;;;;17.43;15.00;;;20.70;99.10;;;;;;5085186;28;20431;-56
2022/08/20 04:50:39;;;;;;;18.70;16.03;;;20.70;91.80;;;;;;5089479;28;20474;-57
2022/08/20 04:53:07;;;;;;;16.13;14.10;;;20.70;98.90;;;;;;5090222;28;21143;-56
2022/08/20 04:55:37;;;;;;;16.43;13.80;;;20.30;95.80;;;;;;5087604;28;20448;-56
2022/08/20 04:58:04;;;;;;;15.50;13.93;;;20.60;98.10;;;;;;5090097;28;20445;-57
2022/08/20 05:00:31;;;;;;;14.13;12.63;;;20.50;99.90;;;;;;5090679;28;20518;-55
2022/08/20 05:02:57;;;;;;;13.83;12.33;;;20.60;99.90;;;;;;5090425;28;20444;-56
2022/08/20 05:05:23;;;;;;;14.33;12.83;;;20.50;99.90;;;;;;5091726;28;20442;-57
2022/08/20 05:07:48;;;;;;;14.50;12.00;;;20.40;99.90;;;;;;5089939;28;20263;-55
2022/08/20 05:10:16;;;;;;;16.63;13.67;;;20.50;99.90;;;;;;5091640;28;20430;-55
2022/08/20 05:12:43;;;;;;;13.03;11.53;;;20.40;99.90;;;;;;5087343;28;20577;-56
2022/08/20 05:15:10;;;;;;;14.63;11.90;;;20.40;99.90;;;;;;5088091;28;20507;-55
2022/08/20 05:17:40;;;;;;;14.13;12.30;;;20.40;99.90;;;;;;5088438;28;20446;-56
2022/08/20 05:20:11;;;;;;;13.90;11.93;;;20.40;99.90;;;;;;5090156;28;20485;-56
2022/08/20 05:22:37;;;;;;;15.37;12.60;;;20.30;99.90;;;;;;5089602;28;21536;-55
2022/08/20 05:25:04;;;;;;;17.20;14.97;;;20.30;99.90;;;;;;5072561;28;20543;-55
2022/08/20 05:27:30;;;;;;;20.07;16.70;;;20.30;99.90;;;;;;5091159;28;20201;-55
2022/08/20 05:30:00;;;;;;;21.20;15.83;;;20.30;99.90;;;;;;5090983;28;20444;-57
2022/08/20 05:32:27;;;;;;;23.03;18.20;;;20.20;99.90;;;;;;5087360;28;20598;-56
2022/08/20 05:34:53;;;;;;;25.13;19.23;;;20.20;99.90;;;;;;5089264;28;20470;-55
2022/08/20 05:37:19;;;;;;;24.50;19.63;;;20.10;99.90;;;;;;5091526;28;20958;-56
2022/08/20 05:39:44;;;;;;;25.87;21.23;;;20.10;99.90;;;;;;5090045;28;20467;-55
2022/08/20 05:42:10;;;;;;;29.17;21.40;;;20.00;99.90;;;;;;5088102;28;20325;-56
2022/08/20 05:44:37;;;;;;;28.60;21.67;;;20.00;99.90;;;;;;5090039;28;20186;-56
2022/08/20 05:47:04;;;;;;;30.47;23.03;;;20.10;99.90;;;;;;5088901;28;20507;-55
2022/08/20 05:49:30;;;;;;;37.00;24.27;;;20.10;99.90;;;;;;5087460;28;20918;-58
2022/08/20 05:51:57;;;;;;;30.30;23.50;;;20.10;99.90;;;;;;5079760;28;20905;-57
2022/08/20 05:54:22;;;;;;;30.20;21.30;;;20.20;99.90;;;;;;5091363;28;20438;-56
2022/08/20 05:56:49;;;;;;;28.10;22.30;;;20.10;99.90;;;;;;5088851;28;20929;-56
2022/08/20 05:59:16;;;;;;;27.30;22.23;;;20.10;99.90;;;;;;5089657;28;20182;-57
2022/08/20 06:01:42;;;;;;;30.03;22.30;;;20.10;99.90;;;;;;5089415;28;20464;-56
2022/08/20 06:04:25;;;;;;;31.10;22.27;;;20.20;99.90;;;;;;5090043;28;20423;-56
2022/08/20 06:07:06;;;;;;;31.40;22.77;;;20.20;99.90;;;;;;5090119;28;20250;-56
2022/08/20 06:09:33;;;;;;;29.33;23.10;;;20.30;99.90;;;;;;5071153;28;20442;-56
2022/08/20 06:12:04;;;;;;;32.50;23.23;;;20.30;99.90;;;;;;5089211;28;21154;-56
2022/08/20 06:14:31;;;;;;;30.93;21.97;;;20.30;99.90;;;;;;5086919;28;20923;-55
2022/08/20 06:17:08;;;;;;;29.27;22.57;;;20.30;99.90;;;;;;5088245;28;20441;-58
2022/08/20 06:19:36;;;;;;;28.60;22.60;;;20.40;99.90;;;;;;5089404;28;20490;-56
2022/08/20 06:22:03;;;;;;;28.53;22.67;;;20.40;99.90;;;;;;5090201;28;20439;-55
2022/08/20 06:24:28;;;;;;;29.07;22.67;;;20.60;99.90;;;;;;5090344;28;20879;-56
2022/08/20 06:26:59;;;;;;;27.23;22.40;;;20.60;99.90;;;;;;5087499;28;20448;-54
2022/08/20 06:29:25;;;;;;;28.63;22.10;;;20.80;99.90;;;;;;5090395;28;20259;-55
2022/08/20 06:31:51;;;;;;;27.77;22.13;;;20.70;99.90;;;;;;5084401;28;20435;-56
2022/08/20 06:34:17;;;;;;;32.37;23.30;;;20.70;99.90;;;;;;5089601;28;20467;-55
2022/08/20 06:36:45;;;;;;;30.70;23.77;;;20.70;99.90;;;;;;5085772;28;20273;-55
2022/08/20 06:39:12;;;;;;;33.57;24.50;;;20.70;99.90;;;;;;5089051;28;20450;-56
2022/08/20 06:41:37;;;;;;;27.67;23.20;;;20.70;99.90;;;;;;5086875;28;20555;-54
2022/08/20 06:44:06;;;;;;;32.33;21.43;;;20.80;99.90;;;;;;5088452;28;20506;-56
2022/08/20 06:46:36;;;;;;;25.90;22.07;;;20.70;99.90;;;;;;5089767;28;20170;-54
2022/08/20 06:49:04;;;;;;;31.00;23.13;;;20.60;99.90;;;;;;5088624;28;20427;-56
2022/08/20 06:51:30;;;;;;;30.33;24.40;;;20.60;99.90;;;;;;5087490;28;20531;-56
2022/08/20 06:53:56;;;;;;;29.97;25.57;;;20.60;99.90;;;;;;5087355;28;21036;-56
2022/08/20 06:56:22;;;;;;;31.87;25.10;;;20.50;99.90;;;;;;5088879;28;20218;-56
2022/08/20 06:58:48;;;;;;;36.83;28.67;;;20.30;99.90;;;;;;5086435;28;21183;-54
2022/08/20 07:01:20;;;;;;;36.73;28.50;;;20.30;99.90;;;;;;5088724;28;20210;-55
2022/08/20 07:03:46;;;;;;;35.40;28.90;;;20.20;99.90;;;;;;5088233;28;20506;-55
2022/08/20 07:06:19;;;;;;;36.80;28.30;;;20.20;99.90;;;;;;5089136;28;20928;-55
2022/08/20 07:08:45;;;;;;;38.60;30.37;;;20.20;99.90;;;;;;5084498;28;22651;-55
2022/08/20 07:11:33;;;;;;;36.70;27.80;;;20.30;99.90;;;;;;5087560;28;20431;-55
2022/08/20 07:14:02;;;;;;;35.53;27.90;;;20.30;99.90;;;;;;5085173;28;20194;-55
2022/08/20 07:16:31;;;;;;;38.10;30.03;;;20.40;99.90;;;;;;5085859;28;20419;-56
2022/08/20 07:18:57;;;;;;;38.57;29.27;;;20.40;99.90;;;;;;5085721;28;20436;-61
2022/08/20 07:21:41;;;;;;;36.00;30.43;;;20.50;99.90;;;;;;5087040;28;20458;-54
2022/08/20 07:24:08;;;;;;;36.67;28.93;;;20.50;99.90;;;;;;5086828;28;20276;-55
2022/08/20 07:26:34;;;;;;;35.90;29.43;;;20.60;99.90;;;;;;5087862;28;20411;-56
2022/08/20 07:28:59;;;;;;;40.40;30.83;;;20.70;99.90;;;;;;5069916;28;20459;-55
2022/08/20 07:34:10;;;;;;;42.73;30.83;;;20.60;99.90;;;;;;5088218;28;20627;-56
2022/08/20 07:36:36;;;;;;;44.40;32.47;;;20.50;99.90;;;;;;5089158;28;20484;-56
2022/08/20 07:39:02;;;;;;;45.70;31.83;;;;;;;;;;5086510;28;20919;-55
2022/08/20 07:41:27;;;;;;;43.33;32.10;;;20.40;99.90;;;;;;5088092;28;20678;-54
2022/08/20 07:43:53;;;;;;;49.43;34.80;;;20.40;99.90;;;;;;5087804;28;20427;-55
2022/08/20 07:46:20;;;;;;;41.90;30.70;;;20.40;99.90;;;;;;5087128;28;20510;-55
2022/08/20 07:48:48;;;;;;;48.00;33.23;;;20.50;99.90;;;;;;5084990;28;20220;-55
2022/08/20 07:51:24;;;;;;;42.20;31.67;;;20.60;99.90;;;;;;5086744;28;20453;-56
2022/08/20 07:53:50;;;;;;;43.00;32.10;;;20.60;99.90;;;;;;5088263;28;20480;-54
2022/08/20 07:56:35;;;;;;;41.23;32.23;;;20.70;99.90;;;;;;5087438;28;20443;-56
2022/08/20 07:59:01;;;;;;;39.97;30.20;;;20.80;99.90;;;;;;5087261;28;20441;-55
2022/08/20 08:01:29;;;;;;;43.50;33.00;;;20.90;99.90;;;;;;5086349;28;20848;-54
2022/08/20 08:03:56;;;;;;;49.43;35.90;;;20.90;97.90;;;;;;5087674;28;20481;-56
2022/08/20 08:06:34;;;;;;;48.70;36.00;;;20.90;93.80;;;;;;5069281;28;20444;-55
2022/08/20 08:09:11;;;;;;;46.93;34.53;;;20.90;99.90;;;;;;5087202;28;20484;-56
2022/08/20 08:11:43;;;;;;;50.37;36.17;;;20.90;99.90;;;;;;5086057;28;20449;-56
2022/08/20 08:14:10;;;;;;;47.53;36.43;;;21.00;99.90;;;;;;5086786;28;20452;-55
2022/08/20 08:16:36;;;;;;;47.53;36.23;;;21.00;95.70;;;;;;5090863;28;20472;-55
2022/08/20 08:19:07;;;;;;;46.20;35.13;;;21.20;95.80;;;;;;5091846;28;20473;-56
2022/08/20 08:21:33;;;;;;;50.00;37.53;;;21.20;96.80;;;;;;5089578;28;20555;-56
2022/08/20 08:23:59;;;;;;;48.57;38.27;;;21.30;80.80;;;;;;5090950;28;20506;-55
2022/08/20 08:26:27;;;;;;;45.90;34.83;;;21.30;84.70;;;;;;5090480;28;20441;-56
2022/08/20 08:28:53;;;;;;;48.73;35.50;;;21.20;64.70;;;;;;5088657;28;20256;-55
2022/08/20 08:31:24;;;;;;;47.53;36.37;;;21.20;66.40;;;;;;5087082;28;20452;-57
2022/08/20 08:33:50;;;;;;;45.10;36.00;;;21.30;74.40;;;;;;5090482;28;20186;-56
2022/08/20 08:36:28;;;;;;;47.60;37.67;;;21.40;69.30;;;;;;5091670;28;21023;-55
2022/08/20 08:38:54;;;;;;;48.33;36.60;;;21.40;66.50;;;;;;5089277;28;20305;-57
2022/08/20 08:41:30;;;;;;;48.00;38.00;;;21.40;57.40;;;;;;5092094;28;21004;-57
2022/08/20 08:44:11;;;;;;;45.80;36.73;;;21.40;53.00;;;;;;5091443;28;20498;-55
2022/08/20 08:46:43;;;;;;;48.57;38.77;;;21.40;55.00;;;;;;5091494;28;20555;-56
2022/08/20 08:49:13;;;;;;;47.50;37.10;;;21.40;53.80;;;;;;5091000;28;20445;-56
2022/08/20 08:51:45;;;;;;;47.13;36.97;;;21.50;49.90;;;;;;5088498;28;20460;-55
2022/08/20 08:54:15;;;;;;;48.90;37.53;;;21.50;29.70;;;;;;5090126;28;20511;-55
2022/08/20 08:56:42;;;;;;;40.93;34.87;;;21.40;31.30;;;;;;5090097;28;20903;-56
2022/08/20 08:59:08;;;;;;;43.00;34.90;;;21.60;33.10;;;;;;5088471;28;20459;-56
2022/08/20 09:01:54;;;;;;;43.47;35.90;;;21.70;22.00;;;;;;5090268;28;20471;-55
2022/08/20 09:04:21;;;;;;;41.43;33.93;;;21.70;12.30;;;;;;5089311;28;20190;-56
2022/08/20 09:06:48;;;;;;;46.00;35.80;;;21.70;8.70;;;;;;5088850;28;20411;-57
2022/08/20 09:09:21;;;;;;;42.90;34.97;;;21.70;1.00;;;;;;5087999;28;20411;-56
2022/08/20 09:11:52;;;;;;;43.20;35.87;;;21.70;1.00;;;;;;5091848;28;20448;-56
2022/08/20 09:14:17;;;;;;;45.23;35.03;;;21.60;1.00;;;;;;5090027;28;20523;-56
2022/08/20 09:16:43;;;;;;;41.60;34.60;;;21.70;1.00;;;;;;5087315;28;21037;-55
2022/08/20 09:19:09;;;;;;;43.73;36.70;;;21.70;1.00;;;;;;5088263;28;20449;-55
2022/08/20 09:21:35;;;;;;;42.50;34.40;;;21.60;1.00;;;;;;5086470;28;20474;-55
2022/08/20 09:24:00;;;;;;;42.20;34.53;;;21.50;1.00;;;;;;5087375;28;20179;-54
2022/08/20 09:26:26;;;;;;;42.53;35.40;;;21.50;1.00;;;;;;5087902;28;20191;-55
2022/08/20 09:28:51;;;;;;;40.83;34.67;;;21.50;1.60;;;;;;5089911;28;20544;-55
2022/08/20 09:31:20;;;;;;;44.60;35.37;;;21.50;1.30;;;;;;5089270;28;20265;-54
2022/08/20 09:33:45;;;;;;;43.50;36.77;;;21.50;8.60;;;;;;5088791;28;20540;-56
2022/08/20 09:36:23;;;;;;;47.10;35.83;;;21.50;8.50;;;;;;5090873;28;20444;-55
2022/08/20 09:38:49;;;;;;;44.50;36.17;;;21.50;7.20;;;;;;5087742;28;20576;-56
2022/08/20 09:41:17;;;;;;;41.00;33.93;;;21.40;18.50;;;;;;5091045;28;20472;-56
2022/08/20 09:43:43;;;;;;;47.37;36.30;;;21.40;22.40;;;;;;5088105;28;20194;-56
2022/08/20 09:46:08;;;;;;;44.77;36.00;;;21.40;13.70;;;;;;5089886;28;20552;-55
2022/08/20 09:48:34;;;;;;;41.53;35.47;;;21.40;18.20;;;;;;5089331;28;20244;-55
2022/08/20 09:51:00;;;;;;;47.50;36.53;;;21.40;17.40;;;;;;5090825;28;20584;-53
2022/08/20 09:53:26;;;;;;;50.23;37.47;;;21.40;26.40;;;;;;5090356;28;20183;-54
2022/08/20 09:55:54;;;;;;;47.23;36.83;;;21.50;27.70;;;;;;5089873;28;20509;-55
2022/08/20 09:58:31;;;;;;;43.47;36.27;;;21.50;25.30;;;;;;5090330;28;20488;-54
2022/08/20 10:01:00;;;;;;;46.83;37.30;;;21.50;20.00;;;;;;5086664;28;20456;-54
2022/08/20 10:03:25;;;;;;;43.80;36.03;;;21.60;22.80;;;;;;5090886;28;20445;-54
2022/08/20 10:05:51;;;;;;;44.10;36.73;;;21.60;17.70;;;;;;5090766;28;20938;-55
2022/08/20 10:08:17;;;;;;;42.13;35.47;;;21.70;13.40;;;;;;5088769;28;20884;-55
2022/08/20 10:10:42;;;;;;;44.80;36.20;;;21.70;11.30;;;;;;5089509;28;20217;-55
2022/08/20 10:13:08;;;;;;;44.13;36.13;;;21.80;6.40;;;;;;5090347;28;20183;-56
2022/08/20 10:15:33;;;;;;;45.07;36.90;;;21.80;3.30;;;;;;5089810;28;20174;-55
2022/08/20 10:18:04;;;;;;;44.70;36.10;;;21.70;8.60;;;;;;5088911;28;20516;-56
2022/08/20 10:20:29;;;;;;;43.13;36.60;;;21.70;8.30;;;;;;5089166;28;20182;-54
2022/08/20 10:22:55;;;;;;;48.67;38.03;;;21.80;9.40;;;;;;5086199;28;20963;-54
2022/08/20 10:25:21;;;;;;;42.80;35.40;;;21.80;7.40;;;;;;5087159;28;20310;-55
2022/08/20 10:27:46;;;;;;;40.13;34.07;;;21.80;9.00;;;;;;5089431;28;20187;-54
2022/08/20 10:30:12;;;;;;;39.83;35.57;;;21.90;1.00;;;;;;5088644;28;20231;-55
2022/08/20 10:32:38;;;;;;;41.00;36.50;;;21.90;1.00;;;;;;5089691;28;20190;-55
2022/08/20 10:35:04;;;;;;;38.37;34.20;;;21.80;1.00;;;;;;5089115;28;20453;-56
2022/08/20 10:37:30;;;;;;;41.93;35.00;;;21.90;1.00;;;;;;5089371;28;20710;-56
2022/08/20 10:39:56;;;;;;;39.63;34.20;;;21.90;1.00;;;;;;5088344;28;20456;-56
2022/08/20 10:42:22;;;;;;;36.87;32.97;;;21.90;1.00;;;;;;5069895;28;20473;-55
2022/08/20 10:44:48;;;;;;;35.60;31.70;;;22.00;1.00;;;;;;5089076;28;20452;-55
2022/08/20 10:47:18;;;;;;;38.30;31.30;;;22.00;1.00;;;;;;5088773;28;20436;-56
2022/08/20 10:49:44;;;;;;;39.27;35.00;;;22.10;1.00;;;;;;5086947;28;20185;-54
2022/08/20 10:52:10;;;;;;;38.17;34.13;;;;;;;;;;5089917;28;20429;-55
2022/08/20 10:54:40;;;;;;;39.87;34.93;;;22.00;1.00;;;;;;5088821;28;20540;-55
2022/08/20 10:57:05;;;;;;;39.43;35.13;;;22.00;1.00;;;;;;5087843;28;20547;-54
2022/08/20 10:59:31;;;;;;;39.60;35.00;;;22.00;1.00;;;;;;5089233;28;20507;-56
2022/08/20 11:01:56;;;;;;;39.40;32.57;;;22.00;1.00;;;;;;5087900;28;20259;-57
2022/08/20 11:04:22;;;;;;;41.63;34.20;;;21.90;1.00;;;;;;5088827;28;20240;-54
2022/08/20 11:06:47;;;;;;;41.77;36.10;;;22.00;1.00;;;;;;5088473;28;22310;-55
2022/08/20 11:09:13;;;;;;;42.43;34.80;;;22.10;1.00;;;;;;5088862;28;20244;-55
2022/08/20 11:11:39;;;;;;;40.13;32.77;;;22.10;1.00;;;;;;5085029;28;20221;-55
2022/08/20 11:14:04;;;;;;;44.40;34.70;;;22.00;1.00;;;;;;5088861;28;20186;-54
2022/08/20 11:16:30;;;;;;;36.70;33.00;;;22.00;1.00;;;;;;5087516;28;20203;-56
2022/08/20 11:18:55;;;;;;;38.30;33.67;;;22.00;1.00;;;;;;5086008;28;20214;-56
2022/08/20 11:21:21;;;;;;;36.93;33.03;;;21.90;1.00;;;;;;5087883;28;20614;-54
2022/08/20 11:23:46;;;;;;;42.60;35.30;;;21.90;1.00;;;;;;5088706;28;20191;-55
2022/08/20 11:26:22;;;;;;;40.40;35.50;;;22.00;1.00;;;;;;5087138;28;20167;-55
2022/08/20 11:28:47;;;;;;;53.50;38.97;;;22.00;1.00;;;;;;5087767;28;20265;-55
2022/08/20 11:31:22;;;;;;;47.90;37.87;;;22.00;1.00;;;;;;5085200;28;20535;-56
2022/08/20 11:33:48;;;;;;;46.87;39.47;;;21.90;1.00;;;;;;5088348;28;20186;-55
2022/08/20 11:36:26;;;;;;;53.43;40.07;;;21.80;1.00;;;;;;5088236;28;20909;-56
2022/08/20 11:38:52;;;;;;;52.10;40.60;;;21.70;1.00;;;;;;5089253;28;20230;-54
2022/08/20 11:41:33;;;;;;;54.43;41.20;;;21.70;1.00;;;;;;5087920;28;20461;-55
2022/08/20 11:43:58;;;;;;;53.63;40.87;;;21.50;18.90;;;;;;5087905;28;20440;-55
2022/08/20 11:46:33;;;;;;;51.50;41.57;;;21.50;44.90;;;;;;5087600;28;20429;-56
2022/08/20 11:48:59;;;;;;;49.83;40.90;;;21.50;47.30;;;;;;5088107;28;20229;-56
2022/08/20 11:51:25;;;;;;;53.50;42.90;;;21.40;56.30;;;;;;5090769;28;20472;-55
2022/08/20 11:53:50;;;;;;;53.97;42.67;;;21.50;64.90;;;;;;5092381;28;20535;-55
2022/08/20 11:56:28;;;;;;;57.10;43.27;;;21.50;62.00;;;;;;5091244;28;20201;-56
2022/08/20 11:58:54;;;;;;;59.13;44.80;;;21.50;60.70;;;;;;5092495;28;20210;-56
2022/08/20 12:01:22;;;;;;;50.50;40.80;;;21.40;66.90;;;;;;5092478;28;20464;-55
2022/08/20 12:03:48;;;;;;;54.20;41.70;;;21.40;77.90;;;;;;5090284;28;20187;-55
2022/08/20 12:06:19;;;;;;;50.43;40.77;;;21.40;76.80;;;;;;5093044;28;20465;-56
2022/08/20 12:08:45;;;;;;;52.33;41.20;;;21.20;77.00;;;;;;5093173;28;20510;-55
2022/08/20 12:11:16;;;;;;;52.10;41.27;;;21.40;92.70;;;;;;5092915;28;20525;-55
2022/08/20 12:13:42;;;;;;;50.13;41.00;;;21.30;94.80;;;;;;5089993;28;20236;-55
2022/08/20 12:16:08;;;;;;;54.00;41.13;;;21.30;98.10;;;;;;5090658;28;20957;-55
2022/08/20 12:18:33;;;;;;;57.97;42.77;;;21.30;94.40;;;;;;5091928;28;20220;-57
2022/08/20 12:20:59;;;;;;;56.50;44.37;;;21.20;92.00;;;;;;5091666;28;20205;-54
2022/08/20 12:23:24;;;;;;;54.40;43.00;;;21.20;99.90;;;;;;5091627;28;20233;-54
2022/08/20 12:25:50;;;;;;;57.30;43.70;;;21.20;99.90;;;;;;5089766;28;20266;-56
2022/08/20 12:28:16;;;;;;;63.80;43.70;;;21.30;99.90;;;;;;5091082;28;20186;-56
2022/08/20 12:30:42;;;;;;;52.67;41.60;;;21.40;99.90;;;;;;5072175;28;20213;-55
2022/08/20 12:33:08;;;;;;;52.50;42.90;;;21.40;99.90;;;;;;5091568;28;20822;-55
2022/08/20 12:35:34;;;;;;;57.10;44.73;;;21.40;99.90;;;;;;5091011;28;20198;-54
2022/08/20 12:38:04;;;;;;;51.43;41.03;;;21.30;99.90;;;;;;5091954;28;20214;-55
2022/08/20 12:40:30;;;;;;;45.50;40.37;;;21.20;99.90;;;;;;5089768;28;20534;-55
2022/08/20 12:42:56;;;;;;;52.57;42.63;;;21.30;99.90;;;;;;5092674;28;21183;-54